Time;durP1;ratioP1;P1;durP2;ratioP2;P2;SDS_P1;SDS_P2;PMS_P1;PMS_P2;Temp;Humidity;BMP_temperature;BMP_pressure;BME280_temperature;BME280_humidity;BME280_pressure;Samples;Min_cycle;Max_cycle;Signal;HPM_P1;HPM_P2
2022/09/10 00:02:49;;;;;;;1.80;1.50;;;;;;;;;;10359854;28;20397;-75
2022/09/10 00:07:50;;;;;;;2.63;1.77;;;;;;;;;;10364000;28;20281;-76
2022/09/10 00:12:51;;;;;;;1.50;1.40;;;;;;;;;;10361354;28;20052;-75
2022/09/10 00:17:52;;;;;;;3.20;1.70;;;;;;;;;;10377311;28;20037;-75
2022/09/10 00:22:54;;;;;;;1.60;1.50;;;;;;;;;;10369817;28;20299;-75
2022/09/10 00:27:55;;;;;;;2.42;1.50;;;;;;;;;;10369027;28;20045;-75
2022/09/10 00:32:56;;;;;;;4.03;1.57;;;;;;;;;;10368022;28;20034;-75
2022/09/10 00:37:56;;;;;;;2.10;1.60;;;;;;;;;;10370802;28;20781;-75
2022/09/10 00:42:56;;;;;;;2.67;1.50;;;;;;;;;;10365801;28;20034;-74
2022/09/10 00:47:59;;;;;;;2.65;1.75;;;;;;;;;;10371787;28;20284;-77
2022/09/10 00:53:01;;;;;;;2.03;1.60;;;;;;;;;;10374060;28;20056;-78
2022/09/10 00:58:04;;;;;;;2.90;1.57;;;;;;;;;;10369441;28;20041;-76
2022/09/10 01:03:06;;;;;;;3.92;1.40;;;;;;;;;;10374534;28;20037;-76
2022/09/10 01:08:16;;;;;;;3.25;1.58;;;;;;;;;;10370339;28;20037;-75
2022/09/10 01:13:18;;;;;;;2.20;1.98;;;;;;;;;;10351626;28;20414;-75
2022/09/10 01:18:38;;;;;;;2.42;1.65;;;;;;;;;;10369794;28;20052;-76
2022/09/10 01:23:56;;;;;;;2.78;1.65;;;;;;;;;;10351815;28;20046;-76
2022/09/10 01:29:02;;;;;;;4.07;1.58;;;;;;;;;;10360645;28;20152;-75
2022/09/10 01:34:10;;;;;;;2.10;1.50;;;;;;;;;;10365563;28;20049;-76
2022/09/10 01:39:11;;;;;;;6.63;2.13;;;;;;;;;;10357156;28;20045;-75
2022/09/10 01:44:30;;;;;;;2.42;1.70;;;;;;;;;;10364392;28;20034;-77
2022/09/10 01:49:49;;;;;;;2.72;1.65;;;;;;;;;;10349609;28;20076;-76
2022/09/10 01:54:59;;;;;;;2.97;1.88;;;;;;;;;;10367715;28;20600;-75
2022/09/10 02:00:17;;;;;;;4.72;2.00;;;;;;;;;;10364525;28;20054;-76
2022/09/10 02:05:21;;;;;;;2.28;1.60;;;;;;;;;;10367071;28;20030;-76
2022/09/10 02:10:27;;;;;;;2.17;1.50;;;;;;;;;;10350979;28;20194;-75
2022/09/10 02:15:28;;;;;;;2.15;1.48;;;;;;;;;;10366470;28;20482;-75
2022/09/10 02:20:50;;;;;;;3.55;1.40;;;;;;;;;;10366177;28;20078;-76
2022/09/10 02:25:50;;;;;;;1.67;1.20;;;;;;;;;;10360059;28;20053;-76
2022/09/10 02:30:51;;;;;;;2.33;1.67;;;;;;;;;;10378911;28;20058;-76
2022/09/10 02:35:54;;;;;;;1.40;1.20;;;;;;;;;;10359296;28;20323;-77
2022/09/10 02:40:57;;;;;;;1.83;1.52;;;;;;;;;;10363539;28;20069;-77
2022/09/10 02:45:58;;;;;;;2.25;1.27;;;;;;;;;;10377720;28;20030;-76
2022/09/10 02:50:59;;;;;;;2.10;1.15;;;;;;;;;;10361820;28;20041;-77
2022/09/10 02:56:02;;;;;;;2.65;1.92;;;;;;;;;;10359653;28;20046;-76
2022/09/10 03:01:07;;;;;;;1.55;1.30;;;;;;;;;;10359287;28;20494;-74
2022/09/10 03:06:08;;;;;;;2.72;1.35;;;;;;;;;;10374406;28;20040;-75
2022/09/10 03:11:09;;;;;;;3.33;1.40;;;;;;;;;;10362299;28;20056;-75
2022/09/10 03:16:12;;;;;;;1.80;1.30;;;;;;;;;;10362619;28;20042;-75
2022/09/10 03:21:17;;;;;;;2.67;1.20;;;;;;;;;;10361907;28;20139;-76
2022/09/10 03:26:18;;;;;;;3.00;1.10;;;;;;;;;;10360940;28;20043;-76
2022/09/10 03:31:20;;;;;;;2.08;1.10;;;;;;;;;;10359110;28;20069;-74
2022/09/10 03:36:23;;;;;;;;;;;;;;;;;;10336479;28;20107;-76
2022/09/10 03:41:25;;;;;;;1.55;1.00;;;;;;;;;;10379117;28;19922;-76
2022/09/10 03:46:26;;;;;;;1.27;1.10;;;;;;;;;;10359029;28;20478;-76
2022/09/10 03:51:30;;;;;;;2.50;1.13;;;;;;;;;;10357785;28;20404;-76
2022/09/10 03:56:31;;;;;;;2.25;1.05;;;;;;;;;;10361872;28;20141;-75
2022/09/10 04:01:31;;;;;;;2.95;1.10;;;;;;;;;;10361116;28;20044;-77
2022/09/10 04:06:33;;;;;;;3.10;1.52;;;;;;;;;;10359070;28;20092;-76
2022/09/10 04:11:34;;;;;;;3.53;1.23;;;;;;;;;;10360994;28;20073;-77
2022/09/10 04:16:36;;;;;;;1.58;1.23;;;;;;;;;;10360805;28;20049;-75
2022/09/10 04:21:38;;;;;;;3.58;1.17;;;;;;;;;;10358898;28;20438;-76
2022/09/10 04:26:39;;;;;;;1.33;0.90;;;;;;;;;;10359964;28;20030;-76
2022/09/10 04:31:41;;;;;;;2.25;1.10;;;;;;;;;;10358758;28;20460;-76
2022/09/10 04:36:45;;;;;;;1.13;1.02;;;;;;;;;;10359860;28;20037;-76
2022/09/10 04:41:46;;;;;;;1.50;1.13;;;;;;;;;;10358680;28;20038;-75
2022/09/10 04:46:47;;;;;;;2.88;1.20;;;;;;;;;;10347098;28;20042;-75
2022/09/10 04:51:49;;;;;;;2.45;1.30;;;;;;;;;;10340317;28;20040;-74
2022/09/10 04:56:51;;;;;;;1.10;0.90;;;;;;;;;;10360053;28;20197;-74
2022/09/10 05:01:53;;;;;;;2.58;1.35;;;;;;;;;;10364538;28;20057;-75
2022/09/10 05:06:56;;;;;;;1.63;1.30;;;;;;;;;;10368328;28;20404;-75
2022/09/10 05:11:57;;;;;;;1.92;1.20;;;;;;;;;;10368495;28;20846;-74
2022/09/10 05:16:58;;;;;;;1.67;0.95;;;;;;;;;;10362103;28;20100;-75
2022/09/10 05:22:02;;;;;;;1.88;1.00;;;;;;;;;;10365210;28;20045;-77
2022/09/10 05:27:05;;;;;;;1.85;1.20;;;;;;;;;;10367265;28;20383;-78
2022/09/10 05:32:08;;;;;;;3.40;1.15;;;;;;;;;;10370020;28;20030;-76
2022/09/10 05:37:10;;;;;;;2.13;1.05;;;;;;;;;;10369970;28;20757;-76
2022/09/10 05:42:11;;;;;;;2.35;1.10;;;;;;;;;;10363545;28;20042;-75
2022/09/10 05:47:12;;;;;;;3.25;1.38;;;;;;;;;;10350401;28;20026;-74
2022/09/10 05:52:14;;;;;;;1.50;1.15;;;;;;;;;;10368538;28;20069;-76
2022/09/10 05:57:14;;;;;;;4.38;1.40;;;;;;;;;;10361890;28;20133;-73
2022/09/10 06:02:16;;;;;;;2.50;1.38;;;;;;;;;;10371541;28;20038;-73
2022/09/10 06:07:17;;;;;;;1.98;1.30;;;;;;;;;;10385596;28;20096;-75
2022/09/10 06:12:18;;;;;;;1.83;1.40;;;;;;;;;;10362820;28;20033;-76
2022/09/10 06:17:19;;;;;;;3.47;1.80;;;;;;;;;;10367606;28;20038;-75
2022/09/10 06:22:21;;;;;;;2.20;1.70;;;;;;;;;;10375968;28;20132;-78
2022/09/10 06:27:25;;;;;;;2.40;1.40;;;;;;;;;;10367265;28;20684;-79
2022/09/10 06:32:28;;;;;;;3.08;1.17;;;;;;;;;;10374620;28;20049;-83
2022/09/10 06:37:33;;;;;;;4.38;1.30;;;;;;;;;;10376035;28;20044;-78
2022/09/10 06:42:35;;;;;;;3.03;1.75;;;;;;;;;;10345500;28;20519;-78
2022/09/10 06:47:58;;;;;;;2.47;1.55;;;;;;;;;;10385493;28;20046;-81
2022/09/10 06:53:00;;;;;;;2.70;1.92;;;;;;;;;;10401815;28;20042;-80
2022/09/10 06:58:02;;;;;;;1.73;1.33;;;;;;;;;;10409184;28;20266;-85
2022/09/10 07:03:03;;;;;;;1.42;1.20;;;;;;;;;;10388175;28;20096;-78
2022/09/10 07:08:05;;;;;;;3.60;1.48;;;;;;;;;;10358160;28;20053;-78
2022/09/10 07:13:06;;;;;;;1.42;1.23;;;;;;;;;;10370110;28;20354;-77
2022/09/10 07:18:11;;;;;;;3.30;1.50;;;;;;;;;;10361754;28;20121;-78
2022/09/10 07:23:12;;;;;;;1.27;1.10;;;;;;;;;;10360749;28;20049;-74
2022/09/10 07:28:15;;;;;;;;;;;;;;;;;;10358976;28;20041;-74
2022/09/10 07:33:18;;;;;;;1.80;1.20;;;;;;;;;;10374794;28;20008;-76
2022/09/10 07:38:19;;;;;;;1.80;1.20;;;;;;;;;;10376233;28;20111;-77
2022/09/10 07:43:22;;;;;;;1.98;1.33;;;;;;;;;;10365449;28;20165;-77
2022/09/10 07:48:26;;;;;;;1.80;1.25;;;;;;;;;;10362049;28;20050;-74
2022/09/10 07:53:27;;;;;;;2.50;1.45;;;;;;;;;;10362741;28;20113;-74
2022/09/10 07:58:28;;;;;;;2.83;1.55;;;;;;;;;;10379044;28;20100;-75
2022/09/10 08:03:30;;;;;;;2.28;1.42;;;;;;;;;;10361009;28;20056;-74
2022/09/10 08:08:32;;;;;;;2.05;1.40;;;;;;;;;;10363731;28;20038;-75
2022/09/10 08:13:34;;;;;;;2.13;1.50;;;;;;;;;;10358914;28;20042;-75
2022/09/10 08:18:35;;;;;;;2.20;1.40;;;;;;;;;;10358454;28;20093;-75
2022/09/10 08:23:38;;;;;;;3.60;1.80;;;;;;;;;;10364833;28;20034;-77
2022/09/10 08:28:38;;;;;;;3.17;2.30;;;;;;;;;;10359119;28;20042;-76
2022/09/10 08:33:46;;;;;;;2.47;1.65;;;;;;;;;;10369780;28;20046;-78
2022/09/10 08:38:49;;;;;;;2.95;2.10;;;;;;;;;;10379933;28;20053;-78
2022/09/10 08:43:53;;;;;;;1.80;1.48;;;;;;;;;;10383706;28;20045;-78
2022/09/10 08:49:05;;;;;;;2.10;1.80;;;;;;;;;;10393946;28;20040;-74
2022/09/10 08:54:10;;;;;;;19.20;13.32;;;;;;;;;;10391986;28;20096;-79
2022/09/10 08:59:20;;;;;;;2.20;1.48;;;;;;;;;;10366959;28;20065;-80
2022/09/10 09:04:28;;;;;;;16.55;9.52;;;;;;;;;;10377094;28;20048;-80
2022/09/10 09:09:30;;;;;;;1.73;1.27;;;;;;;;;;10342269;28;20076;-79
2022/09/10 09:14:38;;;;;;;2.33;1.40;;;;;;;;;;10374478;28;20034;-83
2022/09/10 09:19:43;;;;;;;1.95;1.40;;;;;;;;;;10386154;28;20084;-79
2022/09/10 09:24:50;;;;;;;2.10;1.55;;;;;;;;;;10374533;28;20065;-78
2022/09/10 09:29:55;;;;;;;3.08;1.38;;;;;;;;;;10381682;28;20069;-83
2022/09/10 09:35:03;;;;;;;1.90;1.15;;;;;;;;;;10368342;28;20038;-81
2022/09/10 09:40:11;;;;;;;2.38;1.48;;;;;;;;;;10389878;28;20065;-83
2022/09/10 09:45:18;;;;;;;3.20;1.70;;;;;;;;;;10393703;28;20022;-80
2022/09/10 09:50:21;;;;;;;1.50;1.20;;;;;;;;;;10393472;28;20120;-77
2022/09/10 09:55:21;;;;;;;;;;;;;;;;;;10398582;28;20046;-83
2022/09/10 10:05:29;;;;;;;3.35;1.63;;;;;;;;;;10373774;23;20029;-81
2022/09/10 10:10:29;;;;;;;2.60;1.87;;;;;;;;;;10552289;23;20055;-79
2022/09/10 10:15:35;;;;;;;2.23;1.33;;;;;;;;;;10395442;28;20312;-82
2022/09/10 10:20:37;;;;;;;2.50;1.83;;;;;;;;;;10399098;28;20377;-79
2022/09/10 10:25:40;;;;;;;3.70;1.98;;;;;;;;;;10363085;28;20040;-82
2022/09/10 10:30:40;;;;;;;2.65;1.40;;;;;;;;;;10372238;28;20037;-78
2022/09/10 10:36:01;;;;;;;2.40;2.15;;;;;;;;;;10374142;28;20064;-77
2022/09/10 10:41:04;;;;;;;3.58;2.60;;;;;;;;;;10366624;28;20048;-79
2022/09/10 10:46:04;;;;;;;;;;;;;;;;;;10366834;28;20050;-80
2022/09/10 10:51:05;;;;;;;5.57;3.10;;;;;;;;;;10370473;28;19968;-79
2022/09/10 10:56:11;;;;;;;5.18;2.92;;;;;;;;;;10370716;28;20080;-78
2022/09/10 11:01:17;;;;;;;2.97;2.53;;;;;;;;;;10367479;28;20049;-78
2022/09/10 11:06:19;;;;;;;4.32;2.90;;;;;;;;;;10360563;28;20517;-78
2022/09/10 11:11:23;;;;;;;4.43;3.20;;;;;;;;;;10373405;28;20030;-77
2022/09/10 11:16:37;;;;;;;6.82;3.50;;;;;;;;;;10366183;28;20085;-77
2022/09/10 11:21:40;;;;;;;4.25;2.53;;;;;;;;;;10370711;28;20133;-76
2022/09/10 11:26:44;;;;;;;5.70;3.30;;;;;;;;;;10362617;28;20088;-78
2022/09/10 11:31:52;;;;;;;4.88;3.15;;;;;;;;;;10369903;28;20046;-78
2022/09/10 11:37:04;;;;;;;3.95;2.95;;;;;;;;;;10366020;28;20133;-77
2022/09/10 11:42:23;;;;;;;5.03;2.90;;;;;;;;;;10371713;28;20699;-78
2022/09/10 11:47:30;;;;;;;5.95;3.08;;;;;;;;;;10380611;28;20047;-78
2022/09/10 11:52:30;;;;;;;5.90;2.80;;;;;;;;;;10365005;28;20045;-78
2022/09/10 11:57:47;;;;;;;4.05;2.40;;;;;;;;;;10363882;28;20599;-78
2022/09/10 12:02:51;;;;;;;2.30;2.10;;;;;;;;;;10359795;28;20052;-78
2022/09/10 12:07:57;;;;;;;6.80;2.60;;;;;;;;;;10362529;28;20452;-77
2022/09/10 12:12:58;;;;;;;9.30;5.63;;;;;;;;;;10380808;28;20073;-80
2022/09/10 12:18:20;;;;;;;5.55;2.78;;;;;;;;;;10384134;28;20061;-78
2022/09/10 12:23:35;;;;;;;3.47;2.60;;;;;;;;;;10395926;28;20030;-79
2022/09/10 12:28:40;;;;;;;4.25;2.38;;;;;;;;;;10373009;28;20073;-79
2022/09/10 12:33:42;;;;;;;5.28;2.75;;;;;;;;;;10400444;28;20029;-81
2022/09/10 12:38:56;;;;;;;3.03;1.60;;;;;;;;;;10369057;28;20041;-80
2022/09/10 12:44:03;;;;;;;5.47;2.17;;;;;;;;;;10391675;28;20120;-79
2022/09/10 12:49:08;;;;;;;2.42;1.70;;;;;;;;;;10384528;28;20042;-79
2022/09/10 12:54:25;;;;;;;3.15;1.58;;;;;;;;;;10385821;28;20056;-79
2022/09/10 12:59:46;;;;;;;2.85;1.63;;;;;;;;;;10382993;28;20107;-78
2022/09/10 13:04:56;;;;;;;3.65;2.15;;;;;;;;;;10383109;28;20034;-79
2022/09/10 13:10:06;;;;;;;4.18;2.05;;;;;;;;;;10370944;28;20455;-78
2022/09/10 13:15:28;;;;;;;5.10;1.30;;;;;;;;;;10369089;28;20042;-76
2022/09/10 13:20:30;;;;;;;2.95;1.40;;;;;;;;;;10370600;28;20116;-79
2022/09/10 13:25:41;;;;;;;1.95;1.33;;;;;;;;;;10372022;28;20034;-78
2022/09/10 13:30:43;;;;;;;2.83;1.40;;;;;;;;;;10407793;28;20089;-78
2022/09/10 13:36:02;;;;;;;1.85;1.40;;;;;;;;;;10390807;28;20437;-77
2022/09/10 13:41:21;;;;;;;8.32;4.75;;;;;;;;;;10400445;28;20041;-77
2022/09/10 14:02:11;;;;;;;;;;;;;;;;;;10458187;22;20076;-79
2022/09/10 14:07:11;;;;;;;4.63;1.60;;;;;;;;;;10398862;28;19917;-82
2022/09/10 14:12:24;;;;;;;1.87;1.20;;;;;;;;;;10378099;28;20038;-81
2022/09/10 14:17:28;;;;;;;2.15;1.20;;;;;;;;;;10385801;28;20057;-82
2022/09/10 14:22:30;;;;;;;3.55;1.30;;;;;;;;;;10383027;28;20653;-82
2022/09/10 14:27:33;;;;;;;3.47;1.63;;;;;;;;;;10371029;28;20034;-81
2022/09/10 14:32:37;;;;;;;2.90;1.42;;;;;;;;;;10360944;28;20073;-81
2022/09/10 14:37:41;;;;;;;3.40;1.40;;;;;;;;;;10340114;28;20100;-79
2022/09/10 14:42:42;;;;;;;2.25;1.38;;;;;;;;;;10354107;28;20046;-79
2022/09/10 14:47:50;;;;;;;1.55;1.00;;;;;;;;;;10351891;28;20137;-77
2022/09/10 14:52:50;;;;;;;2.08;1.20;;;;;;;;;;10347948;28;20042;-79
2022/09/10 14:57:52;;;;;;;2.53;1.47;;;;;;;;;;10358735;28;20049;-78
2022/09/10 15:02:54;;;;;;;4.15;1.40;;;;;;;;;;10345477;28;20038;-76
2022/09/10 15:07:55;;;;;;;1.95;1.33;;;;;;;;;;10341496;28;20374;-78
2022/09/10 15:12:56;;;;;;;2.00;1.10;;;;;;;;;;10342133;28;20054;-76
2022/09/10 15:17:57;;;;;;;1.98;1.20;;;;;;;;;;10354619;28;20049;-78
2022/09/10 15:22:57;;;;;;;1.77;1.02;;;;;;;;;;10337097;28;20049;-77
2022/09/10 15:27:57;;;;;;;2.40;1.20;;;;;;;;;;10355246;28;20149;-78
2022/09/10 15:32:58;;;;;;;2.30;1.03;;;;;;;;;;10354102;28;20379;-74
2022/09/10 15:38:00;;;;;;;2.95;1.00;;;;;;;;;;10361055;28;20054;-77
2022/09/10 15:43:01;;;;;;;2.17;1.00;;;;;;;;;;10350698;28;20029;-79
2022/09/10 15:48:02;;;;;;;1.80;1.40;;;;;;;;;;10358210;28;20038;-76
2022/09/10 15:53:03;;;;;;;1.17;1.08;;;;;;;;;;10355266;28;20044;-77
2022/09/10 15:58:03;;;;;;;3.30;1.63;;;;;;;;;;10343908;28;20042;-78
2022/09/10 16:03:04;;;;;;;2.33;1.60;;;;;;;;;;10343937;28;20049;-79
2022/09/10 16:08:04;;;;;;;3.50;1.50;;;;;;;;;;10338187;28;20034;-76
2022/09/10 16:13:05;;;;;;;1.55;1.15;;;;;;;;;;10339216;28;20045;-76
2022/09/10 16:18:05;;;;;;;3.00;1.58;;;;;;;;;;10349301;28;20057;-78
2022/09/10 16:23:06;;;;;;;3.10;1.65;;;;;;;;;;10352097;28;20498;-76
2022/09/10 16:28:06;;;;;;;1.95;1.52;;;;;;;;;;10342393;28;20048;-76
2022/09/10 16:33:07;;;;;;;5.97;3.40;;;;;;;;;;10342690;28;20065;-75
2022/09/10 16:38:07;;;;;;;2.78;1.50;;;;;;;;;;10352795;28;20037;-77
2022/09/10 16:43:07;;;;;;;3.00;1.70;;;;;;;;;;10343451;28;20529;-75
2022/09/10 16:48:08;;;;;;;2.57;1.40;;;;;;;;;;10345188;28;20081;-75
2022/09/10 16:53:08;;;;;;;2.95;1.50;;;;;;;;;;10339812;28;20038;-73
2022/09/10 16:58:09;;;;;;;8.88;6.43;;;;;;;;;;10364541;28;20160;-84
2022/09/10 17:03:10;;;;;;;2.20;1.45;;;;;;;;;;10373010;28;20042;-77
2022/09/10 17:08:11;;;;;;;3.40;1.55;;;;;;;;;;10356659;28;20502;-77
2022/09/10 17:13:13;;;;;;;3.35;1.30;;;;;;;;;;10359980;28;20061;-78
2022/09/10 17:18:14;;;;;;;2.33;1.23;;;;;;;;;;10361097;28;20040;-75
2022/09/10 17:23:17;;;;;;;2.33;1.20;;;;;;;;;;10360180;28;20042;-76
2022/09/10 17:28:18;;;;;;;8.63;4.93;;;;;;;;;;10347699;28;20434;-76
2022/09/10 17:33:18;;;;;;;3.10;1.58;;;;;;;;;;10355177;28;20115;-75
2022/09/10 17:38:20;;;;;;;2.58;1.35;;;;;;;;;;10340055;28;20053;-76
2022/09/10 17:43:20;;;;;;;1.30;1.20;;;;;;;;;;10359953;28;20588;-74
2022/09/10 17:48:20;;;;;;;3.00;1.30;;;;;;;;;;10400243;28;20093;-77
2022/09/10 17:53:22;;;;;;;3.88;2.90;;;;;;;;;;10400841;28;20022;-77
2022/09/10 17:58:23;;;;;;;3.63;1.60;;;;;;;;;;10401894;28;20054;-76
2022/09/10 18:03:25;;;;;;;3.47;1.40;;;;;;;;;;10384225;28;20050;-76
2022/09/10 18:08:25;;;;;;;6.90;5.00;;;;;;;;;;10378883;28;20038;-75
2022/09/10 18:13:26;;;;;;;4.50;3.50;;;;;;;;;;10357448;28;20088;-78
2022/09/10 18:18:26;;;;;;;1.95;1.50;;;;;;;;;;10359757;28;20582;-76
2022/09/10 18:23:27;;;;;;;1.70;1.33;;;;;;;;;;10360677;28;20041;-77
2022/09/10 18:28:28;;;;;;;1.80;1.40;;;;;;;;;;10356664;28;20651;-76
2022/09/10 18:33:28;;;;;;;4.27;1.90;;;;;;;;;;10359307;28;20037;-75
2022/09/10 18:38:30;;;;;;;3.33;1.92;;;;;;;;;;10343886;28;20297;-77
2022/09/10 18:43:32;;;;;;;4.22;1.85;;;;;;;;;;10349440;28;20053;-76
2022/09/10 18:48:33;;;;;;;2.72;1.60;;;;;;;;;;10348095;28;20034;-79
2022/09/10 18:53:36;;;;;;;2.95;2.42;;;;;;;;;;10347156;28;20453;-76
2022/09/10 18:58:37;;;;;;;1.70;1.53;;;;;;;;;;10335773;28;20358;-76
2022/09/10 19:03:44;;;;;;;5.13;2.70;;;;;;;;;;10345026;28;20053;-77
2022/09/10 19:08:49;;;;;;;4.05;2.50;;;;;;;;;;10344038;28;20030;-78
2022/09/10 19:13:53;;;;;;;3.22;1.90;;;;;;;;;;10349550;28;20035;-76
2022/09/10 19:18:55;;;;;;;3.00;1.70;;;;;;;;;;10356477;28;20026;-78
2022/09/10 19:23:59;;;;;;;2.58;2.20;;;;;;;;;;10346776;28;20045;-76
2022/09/10 19:29:07;;;;;;;2.25;1.67;;;;;;;;;;10341459;28;20038;-76
2022/09/10 19:34:09;;;;;;;3.47;1.92;;;;;;;;;;10328728;28;20046;-73
2022/09/10 19:39:11;;;;;;;4.15;3.00;;;;;;;;;;10344462;28;20054;-74
2022/09/10 19:44:14;;;;;;;3.00;1.73;;;;;;;;;;10341291;28;20044;-77
2022/09/10 19:49:15;;;;;;;3.65;2.20;;;;;;;;;;10331294;28;20486;-74
2022/09/10 19:54:16;;;;;;;2.28;2.08;;;;;;;;;;10341103;28;20121;-76
2022/09/10 19:59:16;;;;;;;4.53;2.30;;;;;;;;;;10346100;28;20050;-76
2022/09/10 20:04:17;;;;;;;3.40;2.28;;;;;;;;;;10358255;28;20026;-78
2022/09/10 20:09:17;;;;;;;3.33;2.78;;;;;;;;;;10343977;28;20148;-77
2022/09/10 20:14:19;;;;;;;4.45;3.42;;;;;;;;;;10348557;28;20049;-77
2022/09/10 20:19:20;;;;;;;4.87;3.60;;;;;;;;;;10336660;28;20045;-76
2022/09/10 20:24:22;;;;;;;5.38;3.72;;;;;;;;;;10342621;28;20328;-76
2022/09/10 20:29:27;;;;;;;4.50;4.10;;;;;;;;;;10364235;28;20037;-76
2022/09/10 20:34:28;;;;;;;4.63;3.80;;;;;;;;;;10404141;28;20038;-77
2022/09/10 20:39:31;;;;;;;5.47;4.00;;;;;;;;;;10403566;28;20042;-75
2022/09/10 20:44:31;;;;;;;5.07;3.30;;;;;;;;;;10413608;28;20018;-76
2022/09/10 20:49:31;;;;;;;4.63;3.80;;;;;;;;;;10383078;28;20049;-76
2022/09/10 20:54:32;;;;;;;6.23;3.70;;;;;;;;;;10366395;28;20316;-74
2022/09/10 20:59:33;;;;;;;8.52;4.60;;;;;;;;;;10363677;28;20038;-79
2022/09/10 21:04:35;;;;;;;5.18;4.40;;;;;;;;;;10352773;28;20054;-79
2022/09/10 21:09:37;;;;;;;6.20;4.63;;;;;;;;;;10351116;28;20096;-78
2022/09/10 21:14:39;;;;;;;5.75;4.50;;;;;;;;;;10341113;28;20438;-76
2022/09/10 21:19:40;;;;;;;6.85;3.83;;;;;;;;;;10359233;28;20486;-79
2022/09/10 21:24:42;;;;;;;5.97;3.95;;;;;;;;;;10347649;28;20040;-78
2022/09/10 21:29:44;;;;;;;6.13;4.45;;;;;;;;;;10363806;28;20557;-77
2022/09/10 21:34:45;;;;;;;7.23;4.13;;;;;;;;;;10351561;28;20042;-77
2022/09/10 21:39:46;;;;;;;6.47;4.70;;;;;;;;;;10340775;28;20305;-80
2022/09/10 21:44:49;;;;;;;8.05;5.28;;;;;;;;;;10348637;28;20050;-78
2022/09/10 21:49:50;;;;;;;;;;;;;;;;;;10342435;28;20046;-79
2022/09/10 21:54:50;;;;;;;10.57;5.35;;;;;;;;;;10348572;28;19917;-77
2022/09/10 21:59:51;;;;;;;7.15;5.80;;;;;;;;;;10350163;28;20041;-75
2022/09/10 22:04:51;;;;;;;9.43;6.38;;;;;;;;;;10353296;28;20054;-79
2022/09/10 22:09:53;;;;;;;9.77;6.85;;;;;;;;;;10348684;28;20054;-77
2022/09/10 22:14:53;;;;;;;8.20;6.53;;;;;;;;;;10348992;28;20038;-81
2022/09/10 22:19:54;;;;;;;8.25;7.25;;;;;;;;;;10343201;28;20281;-77
2022/09/10 22:24:55;;;;;;;11.27;7.60;;;;;;;;;;10354339;28;20441;-78
2022/09/10 22:29:55;;;;;;;9.20;7.10;;;;;;;;;;10350618;28;20447;-77
2022/09/10 22:34:56;;;;;;;11.18;7.85;;;;;;;;;;10353859;28;20270;-78
2022/09/10 22:39:59;;;;;;;11.38;7.68;;;;;;;;;;10342429;28;20437;-79
2022/09/10 22:45:00;;;;;;;10.88;7.25;;;;;;;;;;10344817;28;20045;-79
2022/09/10 22:50:00;;;;;;;8.43;6.35;;;;;;;;;;10328810;28;20152;-80
2022/09/10 22:55:00;;;;;;;8.03;6.73;;;;;;;;;;10343891;28;20138;-80
2022/09/10 23:00:01;;;;;;;9.37;7.47;;;;;;;;;;10343527;28;20293;-78
2022/09/10 23:05:01;;;;;;;8.40;6.78;;;;;;;;;;10351373;28;20053;-78
2022/09/10 23:10:02;;;;;;;7.43;6.47;;;;;;;;;;10356646;28;20049;-78
2022/09/10 23:15:02;;;;;;;6.50;5.88;;;;;;;;;;10372191;28;20301;-82
2022/09/10 23:20:03;;;;;;;9.10;7.13;;;;;;;;;;10390353;28;20029;-78
2022/09/10 23:25:04;;;;;;;8.98;6.47;;;;;;;;;;10398953;28;20056;-78
2022/09/10 23:30:04;;;;;;;7.43;5.97;;;;;;;;;;10410746;28;20046;-78
2022/09/10 23:35:07;;;;;;;7.63;6.18;;;;;;;;;;10361906;28;20061;-78
2022/09/10 23:40:10;;;;;;;5.97;5.43;;;;;;;;;;10340317;28;20042;-76
2022/09/10 23:45:10;;;;;;;6.60;5.20;;;;;;;;;;10339993;28;20087;-76
2022/09/10 23:50:10;;;;;;;6.37;5.70;;;;;;;;;;10344388;28;20723;-77
2022/09/10 23:55:11;;;;;;;6.80;6.07;;;;;;;;;;10340319;28;20285;-77
